sensor_id;sensor_type;location;lat;lon;timestamp;P1;durP1;ratioP1;P2;durP2;ratioP2
45784;SDS011;31489;51.404;5.474;2023-02-10T00:01:29;31.85;;;20.38;;
45784;SDS011;31489;51.404;5.474;2023-02-10T00:03:54;31.67;;;20.80;;
45784;SDS011;31489;51.404;5.474;2023-02-10T00:06:21;31.63;;;21.27;;
45784;SDS011;31489;51.404;5.474;2023-02-10T00:08:53;32.88;;;20.58;;
45784;SDS011;31489;51.404;5.474;2023-02-10T00:11:20;30.65;;;20.42;;
45784;SDS011;31489;51.404;5.474;2023-02-10T00:14:06;30.52;;;21.38;;
45784;SDS011;31489;51.404;5.474;2023-02-10T00:16:32;35.35;;;20.88;;
45784;SDS011;31489;51.404;5.474;2023-02-10T00:18:59;30.50;;;21.17;;
45784;SDS011;31489;51.404;5.474;2023-02-10T00:21:25;29.88;;;19.83;;
45784;SDS011;31489;51.404;5.474;2023-02-10T00:23:50;29.20;;;19.70;;
45784;SDS011;31489;51.404;5.474;2023-02-10T00:26:16;31.25;;;19.27;;
45784;SDS011;31489;51.404;5.474;2023-02-10T00:28:42;29.70;;;19.23;;
45784;SDS011;31489;51.404;5.474;2023-02-10T00:31:08;25.83;;;18.75;;
45784;SDS011;31489;51.404;5.474;2023-02-10T00:33:36;28.38;;;19.27;;
45784;SDS011;31489;51.404;5.474;2023-02-10T00:36:03;28.75;;;19.58;;
45784;SDS011;31489;51.404;5.474;2023-02-10T00:38:29;31.30;;;18.98;;
45784;SDS011;31489;51.404;5.474;2023-02-10T00:40:55;28.83;;;20.10;;
45784;SDS011;31489;51.404;5.474;2023-02-10T00:43:26;27.65;;;19.88;;
45784;SDS011;31489;51.404;5.474;2023-02-10T00:45:51;30.73;;;20.45;;
45784;SDS011;31489;51.404;5.474;2023-02-10T00:48:17;29.88;;;20.75;;
45784;SDS011;31489;51.404;5.474;2023-02-10T00:50:42;32.80;;;21.02;;
45784;SDS011;31489;51.404;5.474;2023-02-10T00:53:08;29.45;;;20.13;;
45784;SDS011;31489;51.404;5.474;2023-02-10T00:55:33;30.15;;;19.70;;
45784;SDS011;31489;51.404;5.474;2023-02-10T00:57:59;30.88;;;19.42;;
45784;SDS011;31489;51.404;5.474;2023-02-10T01:00:25;31.25;;;20.73;;
45784;SDS011;31489;51.404;5.474;2023-02-10T01:02:50;29.75;;;19.70;;
45784;SDS011;31489;51.404;5.474;2023-02-10T01:05:16;29.67;;;21.13;;
45784;SDS011;31489;51.404;5.474;2023-02-10T01:07:42;31.70;;;19.98;;
45784;SDS011;31489;51.404;5.474;2023-02-10T01:10:07;34.38;;;20.70;;
45784;SDS011;31489;51.404;5.474;2023-02-10T01:12:33;29.38;;;20.20;;
45784;SDS011;31489;51.404;5.474;2023-02-10T01:14:58;30.90;;;20.40;;
45784;SDS011;31489;51.404;5.474;2023-02-10T01:17:24;31.23;;;20.42;;
45784;SDS011;31489;51.404;5.474;2023-02-10T01:19:50;31.10;;;20.35;;
45784;SDS011;31489;51.404;5.474;2023-02-10T01:22:16;30.33;;;20.25;;
45784;SDS011;31489;51.404;5.474;2023-02-10T01:24:42;30.00;;;20.55;;
45784;SDS011;31489;51.404;5.474;2023-02-10T01:27:07;31.85;;;20.10;;
45784;SDS011;31489;51.404;5.474;2023-02-10T01:29:33;32.35;;;19.98;;
45784;SDS011;31489;51.404;5.474;2023-02-10T01:31:58;30.27;;;20.13;;
45784;SDS011;31489;51.404;5.474;2023-02-10T01:34:24;33.05;;;19.70;;
45784;SDS011;31489;51.404;5.474;2023-02-10T01:36:51;30.60;;;20.17;;
45784;SDS011;31489;51.404;5.474;2023-02-10T01:39:17;26.48;;;19.95;;
45784;SDS011;31489;51.404;5.474;2023-02-10T01:41:42;31.10;;;20.67;;
45784;SDS011;31489;51.404;5.474;2023-02-10T01:46:47;30.17;;;20.52;;
45784;SDS011;31489;51.404;5.474;2023-02-10T01:49:15;30.75;;;19.70;;
45784;SDS011;31489;51.404;5.474;2023-02-10T01:51:52;30.42;;;19.92;;
45784;SDS011;31489;51.404;5.474;2023-02-10T01:54:39;32.50;;;21.05;;
45784;SDS011;31489;51.404;5.474;2023-02-10T01:57:09;28.92;;;18.77;;
45784;SDS011;31489;51.404;5.474;2023-02-10T01:59:36;31.17;;;19.58;;
45784;SDS011;31489;51.404;5.474;2023-02-10T02:02:03;33.72;;;19.80;;
45784;SDS011;31489;51.404;5.474;2023-02-10T02:07:18;32.92;;;20.92;;
45784;SDS011;31489;51.404;5.474;2023-02-10T02:09:47;33.55;;;20.35;;
45784;SDS011;31489;51.404;5.474;2023-02-10T02:15:01;28.48;;;20.40;;
45784;SDS011;31489;51.404;5.474;2023-02-10T02:18:33;30.15;;;20.70;;
45784;SDS011;31489;51.404;5.474;2023-02-10T02:20:47;39.20;;;22.58;;
45784;SDS011;31489;51.404;5.474;2023-02-10T02:31:58;32.90;;;21.17;;
45784;SDS011;31489;51.404;5.474;2023-02-10T02:37:12;33.63;;;21.75;;
45784;SDS011;31489;51.404;5.474;2023-02-10T02:39:42;37.20;;;22.70;;
45784;SDS011;31489;51.404;5.474;2023-02-10T02:42:19;34.50;;;22.92;;
45784;SDS011;31489;51.404;5.474;2023-02-10T02:47:48;35.70;;;22.67;;
45784;SDS011;31489;51.404;5.474;2023-02-10T02:50:33;36.60;;;23.52;;
45784;SDS011;31489;51.404;5.474;2023-02-10T02:53:15;34.13;;;22.05;;
45784;SDS011;31489;51.404;5.474;2023-02-10T02:58:54;38.38;;;23.52;;
45784;SDS011;31489;51.404;5.474;2023-02-10T03:01:47;40.45;;;22.48;;
45784;SDS011;31489;51.404;5.474;2023-02-10T03:04:30;38.55;;;23.50;;
45784;SDS011;31489;51.404;5.474;2023-02-10T03:06:58;36.47;;;23.60;;
45784;SDS011;31489;51.404;5.474;2023-02-10T03:09:24;37.80;;;24.90;;
45784;SDS011;31489;51.404;5.474;2023-02-10T03:11:54;36.85;;;22.85;;
45784;SDS011;31489;51.404;5.474;2023-02-10T03:14:19;39.13;;;24.48;;
45784;SDS011;31489;51.404;5.474;2023-02-10T03:16:45;41.00;;;25.58;;
45784;SDS011;31489;51.404;5.474;2023-02-10T03:19:11;41.47;;;24.75;;
45784;SDS011;31489;51.404;5.474;2023-02-10T03:21:37;43.92;;;25.90;;
45784;SDS011;31489;51.404;5.474;2023-02-10T03:24:02;51.38;;;30.08;;
45784;SDS011;31489;51.404;5.474;2023-02-10T03:26:28;56.53;;;30.13;;
45784;SDS011;31489;51.404;5.474;2023-02-10T03:28:54;52.00;;;29.10;;
45784;SDS011;31489;51.404;5.474;2023-02-10T03:31:20;58.60;;;31.02;;
45784;SDS011;31489;51.404;5.474;2023-02-10T03:33:46;60.85;;;31.15;;
45784;SDS011;31489;51.404;5.474;2023-02-10T03:36:12;67.78;;;31.73;;
45784;SDS011;31489;51.404;5.474;2023-02-10T03:38:38;72.25;;;32.88;;
45784;SDS011;31489;51.404;5.474;2023-02-10T03:41:03;66.03;;;33.33;;
45784;SDS011;31489;51.404;5.474;2023-02-10T03:43:29;69.70;;;33.60;;
45784;SDS011;31489;51.404;5.474;2023-02-10T03:45:58;65.70;;;34.58;;
45784;SDS011;31489;51.404;5.474;2023-02-10T03:48:25;69.97;;;33.95;;
45784;SDS011;31489;51.404;5.474;2023-02-10T03:50:56;62.45;;;32.88;;
45784;SDS011;31489;51.404;5.474;2023-02-10T03:53:26;77.25;;;35.65;;
45784;SDS011;31489;51.404;5.474;2023-02-10T03:55:52;73.35;;;35.55;;
45784;SDS011;31489;51.404;5.474;2023-02-10T03:58:17;72.45;;;35.22;;
45784;SDS011;31489;51.404;5.474;2023-02-10T04:00:43;70.65;;;37.60;;
45784;SDS011;31489;51.404;5.474;2023-02-10T04:03:08;77.70;;;37.05;;
45784;SDS011;31489;51.404;5.474;2023-02-10T04:05:34;71.80;;;35.78;;
45784;SDS011;31489;51.404;5.474;2023-02-10T04:08:00;69.40;;;35.33;;
45784;SDS011;31489;51.404;5.474;2023-02-10T04:10:25;70.65;;;35.00;;
45784;SDS011;31489;51.404;5.474;2023-02-10T04:12:51;66.53;;;35.50;;
45784;SDS011;31489;51.404;5.474;2023-02-10T04:15:17;64.38;;;35.63;;
45784;SDS011;31489;51.404;5.474;2023-02-10T04:17:43;66.30;;;35.78;;
45784;SDS011;31489;51.404;5.474;2023-02-10T04:20:09;69.72;;;36.20;;
45784;SDS011;31489;51.404;5.474;2023-02-10T04:22:36;63.42;;;34.00;;
45784;SDS011;31489;51.404;5.474;2023-02-10T04:25:02;62.75;;;34.10;;
45784;SDS011;31489;51.404;5.474;2023-02-10T04:27:28;60.83;;;33.40;;
45784;SDS011;31489;51.404;5.474;2023-02-10T04:29:54;69.47;;;33.92;;
45784;SDS011;31489;51.404;5.474;2023-02-10T04:32:20;64.30;;;32.50;;
45784;SDS011;31489;51.404;5.474;2023-02-10T04:34:46;66.20;;;32.85;;
45784;SDS011;31489;51.404;5.474;2023-02-10T04:37:11;94.68;;;34.90;;
45784;SDS011;31489;51.404;5.474;2023-02-10T04:39:37;107.70;;;34.38;;
45784;SDS011;31489;51.404;5.474;2023-02-10T04:42:03;99.88;;;34.28;;
45784;SDS011;31489;51.404;5.474;2023-02-10T04:44:28;92.55;;;35.55;;
45784;SDS011;31489;51.404;5.474;2023-02-10T04:46:54;115.68;;;35.28;;
45784;SDS011;31489;51.404;5.474;2023-02-10T04:49:20;97.03;;;34.90;;
45784;SDS011;31489;51.404;5.474;2023-02-10T04:51:45;62.17;;;32.33;;
45784;SDS011;31489;51.404;5.474;2023-02-10T04:54:11;73.60;;;33.70;;
45784;SDS011;31489;51.404;5.474;2023-02-10T04:56:37;79.57;;;31.90;;
45784;SDS011;31489;51.404;5.474;2023-02-10T04:59:03;78.38;;;33.78;;
45784;SDS011;31489;51.404;5.474;2023-02-10T05:01:28;74.70;;;34.17;;
45784;SDS011;31489;51.404;5.474;2023-02-10T05:03:54;88.78;;;32.92;;
45784;SDS011;31489;51.404;5.474;2023-02-10T05:06:20;72.82;;;33.15;;
45784;SDS011;31489;51.404;5.474;2023-02-10T05:08:45;90.85;;;32.55;;
45784;SDS011;31489;51.404;5.474;2023-02-10T05:11:12;70.28;;;33.13;;
45784;SDS011;31489;51.404;5.474;2023-02-10T05:13:39;78.97;;;34.38;;
45784;SDS011;31489;51.404;5.474;2023-02-10T05:16:05;75.80;;;34.22;;
45784;SDS011;31489;51.404;5.474;2023-02-10T05:18:32;64.97;;;31.65;;
45784;SDS011;31489;51.404;5.474;2023-02-10T05:20:59;70.65;;;33.63;;
45784;SDS011;31489;51.404;5.474;2023-02-10T05:23:27;127.45;;;33.78;;
45784;SDS011;31489;51.404;5.474;2023-02-10T05:25:53;77.78;;;32.35;;
45784;SDS011;31489;51.404;5.474;2023-02-10T05:28:19;94.82;;;35.28;;
45784;SDS011;31489;51.404;5.474;2023-02-10T05:30:46;95.63;;;33.67;;
45784;SDS011;31489;51.404;5.474;2023-02-10T05:33:12;79.50;;;32.13;;
45784;SDS011;31489;51.404;5.474;2023-02-10T05:35:41;89.15;;;34.83;;
45784;SDS011;31489;51.404;5.474;2023-02-10T05:38:07;99.93;;;35.67;;
45784;SDS011;31489;51.404;5.474;2023-02-10T05:40:32;96.63;;;35.00;;
45784;SDS011;31489;51.404;5.474;2023-02-10T05:42:58;80.65;;;34.22;;
45784;SDS011;31489;51.404;5.474;2023-02-10T05:45:24;100.85;;;36.45;;
45784;SDS011;31489;51.404;5.474;2023-02-10T05:47:50;70.25;;;34.90;;
45784;SDS011;31489;51.404;5.474;2023-02-10T05:50:16;62.47;;;33.97;;
45784;SDS011;31489;51.404;5.474;2023-02-10T05:52:42;69.03;;;36.15;;
45784;SDS011;31489;51.404;5.474;2023-02-10T05:55:08;65.70;;;34.17;;
45784;SDS011;31489;51.404;5.474;2023-02-10T05:57:34;72.22;;;34.33;;
45784;SDS011;31489;51.404;5.474;2023-02-10T06:00:00;66.57;;;35.33;;
45784;SDS011;31489;51.404;5.474;2023-02-10T06:02:30;69.45;;;36.67;;
45784;SDS011;31489;51.404;5.474;2023-02-10T06:04:55;77.00;;;37.08;;
45784;SDS011;31489;51.404;5.474;2023-02-10T06:07:21;66.85;;;35.83;;
45784;SDS011;31489;51.404;5.474;2023-02-10T06:09:46;64.60;;;35.67;;
45784;SDS011;31489;51.404;5.474;2023-02-10T06:12:12;79.60;;;38.15;;
45784;SDS011;31489;51.404;5.474;2023-02-10T06:14:38;71.25;;;37.97;;
45784;SDS011;31489;51.404;5.474;2023-02-10T06:17:06;71.57;;;38.13;;
45784;SDS011;31489;51.404;5.474;2023-02-10T06:19:35;65.30;;;35.45;;
45784;SDS011;31489;51.404;5.474;2023-02-10T06:22:02;63.90;;;35.10;;
45784;SDS011;31489;51.404;5.474;2023-02-10T06:24:28;70.75;;;35.55;;
45784;SDS011;31489;51.404;5.474;2023-02-10T06:26:54;74.53;;;38.58;;
45784;SDS011;31489;51.404;5.474;2023-02-10T06:29:20;74.38;;;36.95;;
45784;SDS011;31489;51.404;5.474;2023-02-10T06:31:46;74.03;;;37.80;;
45784;SDS011;31489;51.404;5.474;2023-02-10T06:34:11;79.50;;;38.40;;
45784;SDS011;31489;51.404;5.474;2023-02-10T06:36:37;71.47;;;36.95;;
45784;SDS011;31489;51.404;5.474;2023-02-10T06:39:03;71.88;;;38.17;;
45784;SDS011;31489;51.404;5.474;2023-02-10T06:41:29;71.90;;;37.58;;
45784;SDS011;31489;51.404;5.474;2023-02-10T06:43:55;69.07;;;36.47;;
45784;SDS011;31489;51.404;5.474;2023-02-10T06:46:20;67.70;;;36.33;;
45784;SDS011;31489;51.404;5.474;2023-02-10T06:48:46;73.43;;;36.72;;
45784;SDS011;31489;51.404;5.474;2023-02-10T06:51:12;73.45;;;38.53;;
45784;SDS011;31489;51.404;5.474;2023-02-10T06:53:38;72.60;;;38.08;;
45784;SDS011;31489;51.404;5.474;2023-02-10T06:56:03;69.35;;;36.75;;
45784;SDS011;31489;51.404;5.474;2023-02-10T06:58:29;73.57;;;37.42;;
45784;SDS011;31489;51.404;5.474;2023-02-10T07:00:55;70.40;;;35.75;;
45784;SDS011;31489;51.404;5.474;2023-02-10T07:03:21;74.18;;;37.85;;
45784;SDS011;31489;51.404;5.474;2023-02-10T07:05:46;75.20;;;38.47;;
45784;SDS011;31489;51.404;5.474;2023-02-10T07:08:12;73.95;;;36.15;;
45784;SDS011;31489;51.404;5.474;2023-02-10T07:10:38;71.22;;;37.63;;
45784;SDS011;31489;51.404;5.474;2023-02-10T07:13:03;74.78;;;36.35;;
45784;SDS011;31489;51.404;5.474;2023-02-10T07:15:29;67.95;;;36.25;;
45784;SDS011;31489;51.404;5.474;2023-02-10T07:17:55;73.45;;;35.58;;
45784;SDS011;31489;51.404;5.474;2023-02-10T07:20:21;67.13;;;34.80;;
45784;SDS011;31489;51.404;5.474;2023-02-10T07:22:47;66.75;;;33.70;;
45784;SDS011;31489;51.404;5.474;2023-02-10T07:25:13;64.82;;;34.63;;
45784;SDS011;31489;51.404;5.474;2023-02-10T07:27:39;63.38;;;33.75;;
45784;SDS011;31489;51.404;5.474;2023-02-10T07:30:05;69.22;;;33.15;;
45784;SDS011;31489;51.404;5.474;2023-02-10T07:32:31;63.33;;;34.78;;
45784;SDS011;31489;51.404;5.474;2023-02-10T07:34:57;70.65;;;34.95;;
45784;SDS011;31489;51.404;5.474;2023-02-10T07:37:23;67.88;;;36.03;;
45784;SDS011;31489;51.404;5.474;2023-02-10T07:39:49;66.13;;;34.83;;
45784;SDS011;31489;51.404;5.474;2023-02-10T07:42:14;62.88;;;34.80;;
45784;SDS011;31489;51.404;5.474;2023-02-10T07:44:43;66.60;;;34.58;;
45784;SDS011;31489;51.404;5.474;2023-02-10T07:47:09;66.65;;;34.58;;
45784;SDS011;31489;51.404;5.474;2023-02-10T07:49:35;64.95;;;34.47;;
45784;SDS011;31489;51.404;5.474;2023-02-10T07:52:01;59.95;;;33.05;;
45784;SDS011;31489;51.404;5.474;2023-02-10T07:54:27;58.42;;;32.00;;
45784;SDS011;31489;51.404;5.474;2023-02-10T07:56:53;65.18;;;32.22;;
45784;SDS011;31489;51.404;5.474;2023-02-10T07:59:18;56.72;;;31.77;;
45784;SDS011;31489;51.404;5.474;2023-02-10T08:01:44;63.30;;;32.88;;
45784;SDS011;31489;51.404;5.474;2023-02-10T08:04:10;62.33;;;31.70;;
45784;SDS011;31489;51.404;5.474;2023-02-10T08:06:36;62.88;;;30.60;;
45784;SDS011;31489;51.404;5.474;2023-02-10T08:09:02;57.90;;;30.08;;
45784;SDS011;31489;51.404;5.474;2023-02-10T08:11:28;65.55;;;31.88;;
45784;SDS011;31489;51.404;5.474;2023-02-10T08:13:53;59.58;;;30.92;;
45784;SDS011;31489;51.404;5.474;2023-02-10T08:16:19;59.28;;;30.80;;
45784;SDS011;31489;51.404;5.474;2023-02-10T08:18:45;70.18;;;33.78;;
45784;SDS011;31489;51.404;5.474;2023-02-10T08:21:10;64.35;;;32.70;;
45784;SDS011;31489;51.404;5.474;2023-02-10T08:23:36;60.78;;;32.30;;
45784;SDS011;31489;51.404;5.474;2023-02-10T08:26:04;65.03;;;33.70;;
45784;SDS011;31489;51.404;5.474;2023-02-10T08:28:31;67.75;;;31.95;;
45784;SDS011;31489;51.404;5.474;2023-02-10T08:30:58;57.47;;;29.77;;
45784;SDS011;31489;51.404;5.474;2023-02-10T08:33:25;62.15;;;32.42;;
45784;SDS011;31489;51.404;5.474;2023-02-10T08:35:51;59.88;;;31.20;;
45784;SDS011;31489;51.404;5.474;2023-02-10T08:38:16;63.30;;;32.53;;
45784;SDS011;31489;51.404;5.474;2023-02-10T08:40:42;65.40;;;33.03;;
45784;SDS011;31489;51.404;5.474;2023-02-10T08:43:08;60.78;;;32.50;;
45784;SDS011;31489;51.404;5.474;2023-02-10T08:45:33;62.63;;;32.92;;
45784;SDS011;31489;51.404;5.474;2023-02-10T08:47:59;66.05;;;33.25;;
45784;SDS011;31489;51.404;5.474;2023-02-10T08:50:26;62.05;;;32.03;;
45784;SDS011;31489;51.404;5.474;2023-02-10T08:52:52;70.43;;;34.10;;
45784;SDS011;31489;51.404;5.474;2023-02-10T08:55:18;68.45;;;33.38;;
45784;SDS011;31489;51.404;5.474;2023-02-10T08:57:44;63.88;;;32.10;;
45784;SDS011;31489;51.404;5.474;2023-02-10T09:00:10;63.72;;;32.17;;
45784;SDS011;31489;51.404;5.474;2023-02-10T09:02:36;63.72;;;32.47;;
45784;SDS011;31489;51.404;5.474;2023-02-10T09:05:02;70.75;;;33.70;;
45784;SDS011;31489;51.404;5.474;2023-02-10T09:07:28;63.90;;;32.70;;
45784;SDS011;31489;51.404;5.474;2023-02-10T09:09:53;69.50;;;33.67;;
45784;SDS011;31489;51.404;5.474;2023-02-10T09:12:19;67.30;;;31.95;;
45784;SDS011;31489;51.404;5.474;2023-02-10T09:14:45;72.22;;;34.42;;
45784;SDS011;31489;51.404;5.474;2023-02-10T09:17:11;69.32;;;34.60;;
45784;SDS011;31489;51.404;5.474;2023-02-10T09:19:37;62.47;;;33.47;;
45784;SDS011;31489;51.404;5.474;2023-02-10T09:22:04;66.68;;;32.30;;
45784;SDS011;31489;51.404;5.474;2023-02-10T09:24:30;68.75;;;33.28;;
45784;SDS011;31489;51.404;5.474;2023-02-10T09:26:57;66.47;;;34.53;;
45784;SDS011;31489;51.404;5.474;2023-02-10T09:29:23;72.28;;;35.28;;
45784;SDS011;31489;51.404;5.474;2023-02-10T09:31:48;70.65;;;34.53;;
45784;SDS011;31489;51.404;5.474;2023-02-10T09:34:14;63.33;;;33.47;;
45784;SDS011;31489;51.404;5.474;2023-02-10T09:36:40;67.15;;;34.15;;
45784;SDS011;31489;51.404;5.474;2023-02-10T09:39:05;63.65;;;32.83;;
45784;SDS011;31489;51.404;5.474;2023-02-10T09:55:43;71.70;;;35.00;;
45784;SDS011;31489;51.404;5.474;2023-02-10T10:00:50;71.95;;;34.28;;
45784;SDS011;31489;51.404;5.474;2023-02-10T10:03:36;67.50;;;35.83;;
45784;SDS011;31489;51.404;5.474;2023-02-10T10:06:14;66.57;;;33.83;;
45784;SDS011;31489;51.404;5.474;2023-02-10T10:09:04;66.80;;;34.80;;
45784;SDS011;31489;51.404;5.474;2023-02-10T10:14:05;68.20;;;34.42;;
45784;SDS011;31489;51.404;5.474;2023-02-10T10:16:56;62.03;;;33.28;;
45784;SDS011;31489;51.404;5.474;2023-02-10T10:19:36;63.17;;;32.53;;
45784;SDS011;31489;51.404;5.474;2023-02-10T10:30:46;56.15;;;33.15;;
45784;SDS011;31489;51.404;5.474;2023-02-10T10:35:47;55.83;;;33.92;;
45784;SDS011;31489;51.404;5.474;2023-02-10T10:38:14;51.58;;;32.80;;
45784;SDS011;31489;51.404;5.474;2023-02-10T10:40:44;57.03;;;32.63;;
45784;SDS011;31489;51.404;5.474;2023-02-10T10:43:14;49.47;;;33.17;;
45784;SDS011;31489;51.404;5.474;2023-02-10T10:45:47;47.28;;;32.47;;
45784;SDS011;31489;51.404;5.474;2023-02-10T10:48:15;50.88;;;32.67;;
45784;SDS011;31489;51.404;5.474;2023-02-10T10:50:46;49.60;;;31.85;;
45784;SDS011;31489;51.404;5.474;2023-02-10T10:53:16;46.42;;;30.33;;
45784;SDS011;31489;51.404;5.474;2023-02-10T10:55:48;43.88;;;31.05;;
45784;SDS011;31489;51.404;5.474;2023-02-10T10:58:27;42.97;;;29.48;;
45784;SDS011;31489;51.404;5.474;2023-02-10T11:00:56;47.13;;;30.63;;
45784;SDS011;31489;51.404;5.474;2023-02-10T11:03:24;42.85;;;30.42;;
45784;SDS011;31489;51.404;5.474;2023-02-10T11:08:53;43.80;;;29.30;;
45784;SDS011;31489;51.404;5.474;2023-02-10T11:11:37;40.92;;;28.98;;
45784;SDS011;31489;51.404;5.474;2023-02-10T11:14:26;43.03;;;28.35;;
45784;SDS011;31489;51.404;5.474;2023-02-10T11:16:52;37.47;;;27.58;;
45784;SDS011;31489;51.404;5.474;2023-02-10T11:19:26;39.30;;;27.20;;
45784;SDS011;31489;51.404;5.474;2023-02-10T11:21:53;39.65;;;27.63;;
45784;SDS011;31489;51.404;5.474;2023-02-10T11:24:26;40.90;;;28.73;;
45784;SDS011;31489;51.404;5.474;2023-02-10T11:26:58;34.17;;;24.73;;
45784;SDS011;31489;51.404;5.474;2023-02-10T11:29:50;38.28;;;25.65;;
45784;SDS011;31489;51.404;5.474;2023-02-10T11:32:22;33.50;;;25.30;;
45784;SDS011;31489;51.404;5.474;2023-02-10T11:34:50;33.22;;;23.63;;
45784;SDS011;31489;51.404;5.474;2023-02-10T11:37:21;33.03;;;22.88;;
45784;SDS011;31489;51.404;5.474;2023-02-10T11:39:53;36.17;;;24.77;;
45784;SDS011;31489;51.404;5.474;2023-02-10T11:42:21;34.53;;;23.83;;
45784;SDS011;31489;51.404;5.474;2023-02-10T11:47:46;32.95;;;23.45;;
45784;SDS011;31489;51.404;5.474;2023-02-10T11:50:25;35.47;;;23.25;;
45784;SDS011;31489;51.404;5.474;2023-02-10T11:52:53;31.38;;;23.45;;
45784;SDS011;31489;51.404;5.474;2023-02-10T11:55:20;31.95;;;23.88;;
45784;SDS011;31489;51.404;5.474;2023-02-10T11:57:56;33.60;;;24.30;;
45784;SDS011;31489;51.404;5.474;2023-02-10T12:01:06;33.20;;;22.98;;
45784;SDS011;31489;51.404;5.474;2023-02-10T12:03:37;33.90;;;23.47;;
45784;SDS011;31489;51.404;5.474;2023-02-10T12:06:47;34.42;;;24.38;;
45784;SDS011;31489;51.404;5.474;2023-02-10T12:09:24;33.45;;;23.17;;
45784;SDS011;31489;51.404;5.474;2023-02-10T12:12:20;34.42;;;23.38;;
45784;SDS011;31489;51.404;5.474;2023-02-10T12:20:29;31.50;;;20.88;;
45784;SDS011;31489;51.404;5.474;2023-02-10T12:23:11;31.50;;;20.13;;
45784;SDS011;31489;51.404;5.474;2023-02-10T12:25:54;27.33;;;19.25;;
45784;SDS011;31489;51.404;5.474;2023-02-10T12:36:39;27.00;;;18.13;;
45784;SDS011;31489;51.404;5.474;2023-02-10T12:50:30;24.85;;;17.67;;
45784;SDS011;31489;51.404;5.474;2023-02-10T12:53:09;27.02;;;18.73;;
45784;SDS011;31489;51.404;5.474;2023-02-10T12:58:18;23.73;;;18.45;;
45784;SDS011;31489;51.404;5.474;2023-02-10T13:00:57;24.15;;;18.48;;
45784;SDS011;31489;51.404;5.474;2023-02-10T13:03:38;24.73;;;17.52;;
45784;SDS011;31489;51.404;5.474;2023-02-10T13:08:52;25.27;;;17.45;;
45784;SDS011;31489;51.404;5.474;2023-02-10T13:14:25;22.80;;;15.20;;
45784;SDS011;31489;51.404;5.474;2023-02-10T13:16:54;19.88;;;14.48;;
45784;SDS011;31489;51.404;5.474;2023-02-10T13:19:31;18.42;;;13.15;;
45784;SDS011;31489;51.404;5.474;2023-02-10T13:22:04;16.55;;;13.15;;
45784;SDS011;31489;51.404;5.474;2023-02-10T13:24:42;20.92;;;15.60;;
45784;SDS011;31489;51.404;5.474;2023-02-10T13:30:35;24.55;;;17.17;;
45784;SDS011;31489;51.404;5.474;2023-02-10T13:33:20;23.52;;;16.40;;
45784;SDS011;31489;51.404;5.474;2023-02-10T13:36:10;24.70;;;16.63;;
45784;SDS011;31489;51.404;5.474;2023-02-10T13:38:41;24.10;;;17.02;;
45784;SDS011;31489;51.404;5.474;2023-02-10T13:41:15;27.00;;;17.70;;
45784;SDS011;31489;51.404;5.474;2023-02-10T13:44:19;22.90;;;17.35;;
45784;SDS011;31489;51.404;5.474;2023-02-10T13:47:19;25.63;;;17.95;;
45784;SDS011;31489;51.404;5.474;2023-02-10T13:49:50;28.58;;;19.17;;
45784;SDS011;31489;51.404;5.474;2023-02-10T13:52:26;25.63;;;19.25;;
45784;SDS011;31489;51.404;5.474;2023-02-10T13:54:55;28.02;;;19.00;;
45784;SDS011;31489;51.404;5.474;2023-02-10T13:57:28;30.30;;;19.25;;
45784;SDS011;31489;51.404;5.474;2023-02-10T14:00:13;28.75;;;19.45;;
45784;SDS011;31489;51.404;5.474;2023-02-10T14:02:40;23.40;;;17.77;;
45784;SDS011;31489;51.404;5.474;2023-02-10T14:05:20;27.90;;;18.08;;
45784;SDS011;31489;51.404;5.474;2023-02-10T14:07:52;23.30;;;16.92;;
45784;SDS011;31489;51.404;5.474;2023-02-10T14:15:27;28.38;;;20.27;;
45784;SDS011;31489;51.404;5.474;2023-02-10T14:23:24;31.80;;;20.75;;
45784;SDS011;31489;51.404;5.474;2023-02-10T14:25:55;32.65;;;21.00;;
45784;SDS011;31489;51.404;5.474;2023-02-10T14:28:23;36.95;;;21.52;;
45784;SDS011;31489;51.404;5.474;2023-02-10T14:30:53;32.83;;;20.27;;
45784;SDS011;31489;51.404;5.474;2023-02-10T14:35:53;34.95;;;21.52;;
45784;SDS011;31489;51.404;5.474;2023-02-10T14:38:25;32.58;;;22.33;;
45784;SDS011;31489;51.404;5.474;2023-02-10T14:40:53;34.88;;;22.10;;
45784;SDS011;31489;51.404;5.474;2023-02-10T14:43:25;34.92;;;23.08;;
45784;SDS011;31489;51.404;5.474;2023-02-10T14:45:53;36.70;;;22.40;;
45784;SDS011;31489;51.404;5.474;2023-02-10T14:48:20;35.65;;;22.33;;
45784;SDS011;31489;51.404;5.474;2023-02-10T14:51:18;34.83;;;22.67;;
45784;SDS011;31489;51.404;5.474;2023-02-10T14:53:43;36.65;;;23.33;;
45784;SDS011;31489;51.404;5.474;2023-02-10T14:56:14;33.72;;;22.30;;
45784;SDS011;31489;51.404;5.474;2023-02-10T14:58:47;35.00;;;21.95;;
45784;SDS011;31489;51.404;5.474;2023-02-10T15:01:26;36.72;;;22.95;;
45784;SDS011;31489;51.404;5.474;2023-02-10T15:03:57;32.10;;;21.42;;
45784;SDS011;31489;51.404;5.474;2023-02-10T15:06:24;33.63;;;21.65;;
45784;SDS011;31489;51.404;5.474;2023-02-10T15:08:54;30.55;;;20.13;;
45784;SDS011;31489;51.404;5.474;2023-02-10T15:11:30;28.40;;;19.63;;
45784;SDS011;31489;51.404;5.474;2023-02-10T15:14:20;32.00;;;20.08;;
45784;SDS011;31489;51.404;5.474;2023-02-10T15:16:49;29.42;;;19.80;;
45784;SDS011;31489;51.404;5.474;2023-02-10T15:19:16;28.92;;;19.00;;
45784;SDS011;31489;51.404;5.474;2023-02-10T15:21:43;29.08;;;18.27;;
45784;SDS011;31489;51.404;5.474;2023-02-10T15:24:17;27.90;;;18.58;;
45784;SDS011;31489;51.404;5.474;2023-02-10T15:26:54;28.33;;;19.50;;
45784;SDS011;31489;51.404;5.474;2023-02-10T15:29:21;29.30;;;18.73;;
45784;SDS011;31489;51.404;5.474;2023-02-10T15:31:51;31.10;;;19.48;;
45784;SDS011;31489;51.404;5.474;2023-02-10T15:34:25;30.58;;;19.45;;
45784;SDS011;31489;51.404;5.474;2023-02-10T15:36:56;30.55;;;18.88;;
45784;SDS011;31489;51.404;5.474;2023-02-10T15:42:05;24.88;;;16.65;;
45784;SDS011;31489;51.404;5.474;2023-02-10T15:47:43;29.77;;;18.30;;
45784;SDS011;31489;51.404;5.474;2023-02-10T15:50:11;28.48;;;17.58;;
45784;SDS011;31489;51.404;5.474;2023-02-10T15:52:43;28.58;;;18.52;;
45784;SDS011;31489;51.404;5.474;2023-02-10T15:57:45;31.88;;;18.67;;
45784;SDS011;31489;51.404;5.474;2023-02-10T16:00:22;28.08;;;17.67;;
45784;SDS011;31489;51.404;5.474;2023-02-10T16:02:55;27.50;;;16.55;;
45784;SDS011;31489;51.404;5.474;2023-02-10T16:05:21;34.53;;;17.45;;
45784;SDS011;31489;51.404;5.474;2023-02-10T16:07:48;27.27;;;17.45;;
45784;SDS011;31489;51.404;5.474;2023-02-10T16:10:19;28.10;;;17.52;;
45784;SDS011;31489;51.404;5.474;2023-02-10T16:12:47;25.73;;;17.17;;
45784;SDS011;31489;51.404;5.474;2023-02-10T16:15:16;26.52;;;17.10;;
45784;SDS011;31489;51.404;5.474;2023-02-10T16:17:45;26.35;;;17.15;;
45784;SDS011;31489;51.404;5.474;2023-02-10T16:20:17;26.13;;;18.88;;
45784;SDS011;31489;51.404;5.474;2023-02-10T16:22:45;26.38;;;17.88;;
45784;SDS011;31489;51.404;5.474;2023-02-10T16:25:12;28.70;;;18.27;;
45784;SDS011;31489;51.404;5.474;2023-02-10T16:27:38;27.40;;;18.00;;
45784;SDS011;31489;51.404;5.474;2023-02-10T16:30:04;29.83;;;18.48;;
45784;SDS011;31489;51.404;5.474;2023-02-10T16:32:30;30.95;;;18.10;;
45784;SDS011;31489;51.404;5.474;2023-02-10T16:34:55;30.50;;;18.48;;